createdAt,value
2023-04-16T00:03:50.779Z,6.93
2023-04-16T00:09:41.066Z,6.28
2023-04-16T00:15:30.488Z,7.88
2023-04-16T00:21:20.158Z,7.03
2023-04-16T00:27:12.286Z,6.40
2023-04-16T00:33:09.207Z,6.90
2023-04-16T00:38:56.822Z,6.80
2023-04-16T00:44:43.603Z,6.30
2023-04-16T00:50:35.582Z,7.38
2023-04-16T00:56:26.911Z,6.63
2023-04-16T01:08:02.316Z,5.55
2023-04-16T01:13:52.090Z,6.22
2023-04-16T01:19:39.013Z,6.28
2023-04-16T01:25:28.909Z,5.88
2023-04-16T01:31:15.961Z,5.88
2023-04-16T01:37:13.467Z,5.97
2023-04-16T01:43:00.617Z,4.97
2023-04-16T01:48:47.504Z,5.22
2023-04-16T01:54:34.208Z,5.78
2023-04-16T02:00:21.126Z,5.57
2023-04-16T02:06:07.887Z,5.80
2023-04-16T02:11:56.024Z,5.50
2023-04-16T02:17:43.936Z,5.82
2023-04-16T02:23:31.051Z,5.85
2023-04-16T02:29:19.863Z,5.32
2023-04-16T02:35:13.256Z,5.47
2023-04-16T02:41:11.036Z,4.85
2023-04-16T02:46:58.070Z,5.50
2023-04-16T02:52:45.101Z,5.13
2023-04-16T02:58:31.943Z,6.53
2023-04-16T03:04:21.662Z,6.88
2023-04-16T03:10:10.493Z,5.80
2023-04-16T03:15:59.891Z,6.05
2023-04-16T03:21:48.285Z,6.15
2023-04-16T03:27:42.090Z,5.55
2023-04-16T03:33:33.341Z,6.72
2023-04-16T03:39:22.892Z,6.50
2023-04-16T03:45:10.321Z,6.45
2023-04-16T03:50:59.432Z,6.50
2023-04-16T03:56:50.158Z,6.47
2023-04-16T04:02:39.994Z,6.68
2023-04-16T04:08:31.604Z,6.25
2023-04-16T04:14:20.896Z,7.03
2023-04-16T04:20:08.102Z,7.65
2023-04-16T04:25:56.469Z,7.47
2023-04-16T04:31:44.991Z,6.65
2023-04-16T04:37:40.735Z,7.72
2023-04-16T04:43:49.553Z,7.70
2023-04-16T04:49:37.566Z,7.18
2023-04-16T04:55:27.024Z,7.15
2023-04-16T05:01:17.306Z,7.20
2023-04-16T05:07:05.261Z,7.70
2023-04-16T05:12:56.717Z,7.63
2023-04-16T05:18:46.364Z,5.30
2023-04-16T05:24:35.278Z,7.73
2023-04-16T05:30:24.933Z,7.05
2023-04-16T05:36:16.566Z,6.53
2023-04-16T05:42:03.822Z,7.43
2023-04-16T05:47:50.768Z,7.55
2023-04-16T05:53:49.402Z,7.38
2023-04-16T05:59:53.633Z,7.35
2023-04-16T06:05:41.722Z,7.13
2023-04-16T06:11:30.223Z,8.60
2023-04-16T06:17:17.137Z,7.38
2023-04-16T06:23:07.921Z,7.53
2023-04-16T06:28:57.600Z,6.22
2023-04-16T06:34:47.458Z,6.72
2023-04-16T06:40:34.329Z,6.82
2023-04-16T06:46:21.308Z,7.45
2023-04-16T06:52:09.138Z,11.88
2023-04-16T06:57:56.506Z,6.65
2023-04-16T07:03:43.549Z,6.78
2023-04-16T07:09:32.178Z,6.35
2023-04-16T07:15:19.070Z,6.40
2023-04-16T07:21:05.813Z,8.23
2023-04-16T07:26:52.877Z,6.30
2023-04-16T07:32:39.820Z,6.28
2023-04-16T07:38:26.581Z,6.15
2023-04-16T07:44:14.076Z,5.63
2023-04-16T07:50:01.750Z,6.43
2023-04-16T07:55:48.814Z,11.25
2023-04-16T08:01:36.559Z,7.18
2023-04-16T08:07:23.293Z,5.57
2023-04-16T08:13:10.040Z,4.22
2023-04-16T08:19:10.822Z,3.53
2023-04-16T08:24:57.946Z,3.13
2023-04-16T08:30:45.986Z,3.42
2023-04-16T08:36:32.859Z,3.25
2023-04-16T08:42:40.888Z,2.95
2023-04-16T08:48:33.646Z,3.17
2023-04-16T08:54:44.845Z,2.72
2023-04-16T09:00:32.776Z,2.35
2023-04-16T09:06:28.274Z,2.15
2023-04-16T09:12:52.132Z,2.40
2023-04-16T09:18:39.064Z,2.35
2023-04-16T09:24:32.021Z,1.83
2023-04-16T09:30:27.544Z,2.42
2023-04-16T09:36:23.600Z,1.42
2023-04-16T09:42:11.864Z,1.83
2023-04-16T09:48:06.167Z,1.58
2023-04-16T09:53:57.220Z,1.70
2023-04-16T09:59:44.015Z,1.00
2023-04-16T10:05:34.082Z,0.90
2023-04-16T10:11:24.423Z,1.10
2023-04-16T10:17:11.683Z,1.00
2023-04-16T10:22:59.100Z,1.00
2023-04-16T10:28:47.163Z,0.80
2023-04-16T10:34:35.112Z,0.70
2023-04-16T10:40:28.297Z,1.00
2023-04-16T10:46:54.963Z,1.70
2023-04-16T10:53:15.686Z,0.80
2023-04-16T10:59:09.334Z,0.70
2023-04-16T11:05:07.081Z,0.57
2023-04-16T11:10:58.925Z,0.50
2023-04-16T11:16:46.203Z,0.70
2023-04-16T11:22:40.755Z,0.20
2023-04-16T11:28:34.889Z,0.68
2023-04-16T11:34:27.426Z,0.40
2023-04-16T11:40:20.322Z,1.00
2023-04-16T11:46:20.541Z,0.57
2023-04-16T11:52:33.343Z,0.80
2023-04-16T11:58:43.437Z,0.93
2023-04-16T12:04:33.447Z,0.70
2023-04-16T12:10:20.089Z,1.05
2023-04-16T12:16:19.711Z,0.77
2023-04-16T12:22:06.627Z,1.42
2023-04-16T12:27:56.016Z,0.80
2023-04-16T12:33:42.785Z,0.52
2023-04-16T12:39:29.781Z,1.95
2023-04-16T12:45:16.914Z,1.30
2023-04-16T12:51:03.850Z,0.40
2023-04-16T12:56:50.843Z,4.43
2023-04-16T13:02:37.948Z,0.88
2023-04-16T13:08:24.992Z,0.32
2023-04-16T13:14:11.817Z,0.70
2023-04-16T13:19:58.733Z,1.30
2023-04-16T13:25:45.593Z,0.47
2023-04-16T13:31:32.513Z,0.40
2023-04-16T13:37:19.457Z,0.40
2023-04-16T13:43:07.777Z,0.68
2023-04-16T13:48:55.215Z,0.90
2023-04-16T13:54:42.731Z,0.77
2023-04-16T14:00:42.300Z,0.68
2023-04-16T14:06:29.226Z,0.55
2023-04-16T14:12:16.488Z,0.38
2023-04-16T14:18:03.949Z,0.93
2023-04-16T14:23:51.490Z,1.00
2023-04-16T14:29:38.484Z,2.63
2023-04-16T14:35:25.722Z,0.73
2023-04-16T14:41:13.572Z,1.15
2023-04-16T14:47:00.709Z,0.82
2023-04-16T14:52:47.495Z,0.93
2023-04-16T14:58:37.292Z,0.60
2023-04-16T15:04:26.299Z,0.98
2023-04-16T15:10:14.013Z,0.75
2023-04-16T15:16:07.424Z,0.68
2023-04-16T15:21:55.909Z,0.50
2023-04-16T15:27:43.125Z,0.73
2023-04-16T15:33:29.823Z,0.60
2023-04-16T15:39:16.490Z,0.90
2023-04-16T15:45:03.325Z,0.73
2023-04-16T15:50:50.481Z,0.50
2023-04-16T15:56:37.414Z,0.77
2023-04-16T16:02:24.746Z,0.80
2023-04-16T16:08:11.854Z,0.73
2023-04-16T16:14:01.153Z,0.75
2023-04-16T16:19:47.914Z,0.70
2023-04-16T16:25:34.834Z,0.50
2023-04-16T16:31:25.087Z,0.82
2023-04-16T16:37:20.995Z,0.73
2023-04-16T16:43:09.959Z,0.77
2023-04-16T16:48:56.876Z,0.93
2023-04-16T16:54:44.824Z,0.75
2023-04-16T17:00:31.989Z,0.77
2023-04-16T17:06:19.249Z,0.57
2023-04-16T17:12:06.505Z,1.02
2023-04-16T17:18:07.920Z,0.93
2023-04-16T17:24:03.824Z,0.90
2023-04-16T17:30:12.492Z,0.98
2023-04-16T17:36:01.685Z,0.55
2023-04-16T17:41:54.379Z,0.98
2023-04-16T17:47:44.906Z,1.33
2023-04-16T18:00:32.093Z,1.30
2023-04-16T18:22:07.927Z,0.70
2023-04-16T18:27:54.961Z,1.00
2023-04-16T18:33:57.410Z,5.22
2023-04-16T18:39:45.429Z,1.30
2023-04-16T18:45:40.053Z,2.13
2023-04-16T18:51:44.735Z,0.90
2023-04-16T18:57:52.234Z,1.00
2023-04-16T19:19:45.192Z,0.80
2023-04-16T19:39:51.627Z,1.85
2023-04-16T19:53:50.560Z,1.58
2023-04-16T20:23:37.674Z,3.50
2023-04-16T20:36:57.477Z,4.00
2023-04-16T20:50:25.680Z,8.50
2023-04-16T21:04:12.059Z,1.70
2023-04-16T21:10:00.988Z,1.30
2023-04-16T21:15:50.826Z,1.15
2023-04-16T21:28:53.310Z,1.45
2023-04-16T21:35:19.870Z,1.50
2023-04-16T21:41:12.498Z,2.28
2023-04-16T21:47:10.842Z,2.22
2023-04-16T21:52:58.104Z,2.03
2023-04-16T21:58:47.586Z,7.97
2023-04-16T22:11:50.064Z,7.30
2023-04-16T22:17:49.528Z,7.20
2023-04-16T22:23:52.245Z,7.68
2023-04-16T22:30:27.861Z,7.63
2023-04-16T23:07:06.959Z,9.45
2023-04-16T23:13:03.004Z,7.00
2023-04-16T23:19:00.530Z,4.55
2023-04-16T23:24:49.983Z,3.90
2023-04-16T23:30:51.193Z,3.08
2023-04-16T23:37:00.963Z,3.28
2023-04-16T23:42:47.823Z,4.28
2023-04-16T23:48:38.563Z,4.10
2023-04-16T23:54:29.305Z,3.80
